createdAt,value
2019-04-16T00:00:47.544Z,98535.14
2019-04-16T00:03:14.693Z,98468.55
2019-04-16T00:05:44.629Z,98535.67
2019-04-16T00:08:27.919Z,98535.19
2019-04-16T00:10:57.771Z,98535.70
2019-04-16T00:13:30.890Z,98535.70
2019-04-16T00:15:59.036Z,98532.52
2019-04-16T00:18:26.374Z,98539.74
2019-04-16T00:21:12.501Z,98533.86
2019-04-16T00:23:54.934Z,98532.27
2019-04-16T00:26:26.530Z,98533.90
2019-04-16T00:28:51.161Z,98529.89
2019-04-16T00:31:18.170Z,98530.67
2019-04-16T00:33:45.261Z,98531.73
2019-04-16T00:36:15.403Z,98529.88
2019-04-16T00:38:41.839Z,98532.84
2019-04-16T00:41:09.856Z,98488.59
2019-04-16T00:43:37.169Z,98530.45
2019-04-16T00:46:08.288Z,98528.32
2019-04-16T00:48:36.755Z,98529.94
2019-04-16T00:51:04.016Z,98529.41
2019-04-16T00:53:31.404Z,98525.41
2019-04-16T00:56:00.009Z,98527.28
2019-04-16T00:58:27.949Z,98528.36
2019-04-16T01:00:55.713Z,98525.94
2019-04-16T01:03:23.640Z,98517.94
2019-04-16T01:05:50.925Z,98520.89
2019-04-16T01:08:18.215Z,98517.39
2019-04-16T01:10:45.800Z,98509.94
2019-04-16T01:13:13.231Z,98509.40
2019-04-16T01:15:41.329Z,98506.50
2019-04-16T01:18:09.315Z,98501.94
2019-04-16T01:20:37.127Z,98505.41
2019-04-16T01:23:04.763Z,98496.58
2019-04-16T01:25:55.358Z,98500.59
2019-04-16T01:28:23.091Z,98499.55
2019-04-16T01:31:01.005Z,98493.70
2019-04-16T01:33:47.757Z,98499.84
2019-04-16T01:36:36.719Z,98496.91
2019-04-16T01:39:16.046Z,98501.20
2019-04-16T01:41:35.294Z,98407.70
2019-04-16T01:44:02.383Z,98497.73
2019-04-16T01:46:32.599Z,98492.64
2019-04-16T01:48:58.607Z,98498.53
2019-04-16T01:51:25.675Z,98495.07
2019-04-16T01:53:53.392Z,98492.66
2019-04-16T01:56:20.793Z,98489.45
2019-04-16T01:58:48.237Z,98487.32
2019-04-16T02:01:15.338Z,98492.41
2019-04-16T02:03:42.395Z,98499.60
2019-04-16T02:06:09.755Z,98500.70
2019-04-16T02:08:37.133Z,98499.63
2019-04-16T02:11:04.197Z,98502.30
2019-04-16T02:13:31.430Z,98500.16
2019-04-16T02:15:59.273Z,98497.76
2019-04-16T02:18:29.802Z,98492.96
2019-04-16T02:20:57.114Z,98488.15
2019-04-16T02:23:25.123Z,98495.38
2019-04-16T02:25:52.783Z,98499.65
2019-04-16T02:28:21.836Z,98487.89
2019-04-16T02:30:49.116Z,98485.80
2019-04-16T02:33:16.792Z,98487.67
2019-04-16T02:35:45.065Z,98482.59
2019-04-16T02:38:13.661Z,98486.34
2019-04-16T02:40:42.028Z,98479.38
2019-04-16T02:43:09.791Z,98478.06
2019-04-16T02:45:37.152Z,98479.39
2019-04-16T02:48:04.671Z,98484.20
2019-04-16T02:50:52.032Z,98478.33
2019-04-16T02:53:54.498Z,98476.73
2019-04-16T02:56:52.167Z,98478.86
2019-04-16T02:59:27.609Z,98470.36
2019-04-16T03:02:02.748Z,98479.69
2019-04-16T03:04:40.450Z,98479.69
2019-04-16T03:10:00.628Z,98470.07
2019-04-16T03:12:17.570Z,98474.63
2019-04-16T03:14:45.841Z,98470.61
2019-04-16T03:17:29.691Z,98473.55
2019-04-16T03:19:58.167Z,98473.58
2019-04-16T03:22:25.324Z,98472.76
2019-04-16T03:24:52.452Z,98476.23
2019-04-16T03:27:22.241Z,98470.38
2019-04-16T03:29:49.115Z,98470.64
2019-04-16T03:32:17.108Z,98472.77
2019-04-16T03:34:44.368Z,98473.30
2019-04-16T03:37:11.888Z,98480.78
2019-04-16T03:39:43.856Z,98478.38
2019-04-16T03:42:09.582Z,98477.05
2019-04-16T03:44:37.521Z,98472.52
2019-04-16T03:47:04.987Z,98470.64
2019-04-16T03:49:33.051Z,98471.45
2019-04-16T03:52:00.917Z,98473.55
2019-04-16T03:54:28.013Z,98473.02
2019-04-16T03:56:55.170Z,98469.30
2019-04-16T03:59:22.280Z,98477.28
2019-04-16T04:01:49.669Z,98471.68
2019-04-16T04:04:16.807Z,98472.49
2019-04-16T04:06:44.222Z,98477.30
2019-04-16T04:09:11.507Z,98481.55
2019-04-16T04:11:41.180Z,98480.23
2019-04-16T04:14:08.284Z,98483.97
2019-04-16T04:16:35.399Z,98484.76
2019-04-16T04:19:02.567Z,98484.25
2019-04-16T04:21:30.110Z,98487.98
2019-04-16T04:23:59.727Z,98308.94
2019-04-16T04:26:26.551Z,98478.09
2019-04-16T04:28:53.594Z,98484.52
2019-04-16T04:31:20.617Z,98486.91
2019-04-16T04:33:47.698Z,98483.98
2019-04-16T04:36:15.166Z,98485.30
2019-04-16T04:38:42.593Z,98493.56
2019-04-16T04:41:09.739Z,98494.64
2019-04-16T04:43:37.134Z,98493.30
2019-04-16T04:46:05.133Z,98495.72
2019-04-16T04:48:32.862Z,98494.38
2019-04-16T04:50:59.997Z,98498.89
2019-04-16T04:53:27.131Z,98496.77
2019-04-16T04:55:57.201Z,98495.96
2019-04-16T04:58:24.293Z,98501.31
2019-04-16T05:00:51.949Z,98511.97
2019-04-16T05:03:38.021Z,98510.62
2019-04-16T05:06:06.131Z,98503.70
2019-04-16T05:08:33.231Z,98508.24
2019-04-16T05:11:02.917Z,98513.56
2019-04-16T05:13:29.323Z,98514.91
2019-04-16T05:15:58.345Z,98520.22
2019-04-16T05:18:26.360Z,98518.11
2019-04-16T05:20:53.604Z,98521.84
2019-04-16T05:23:24.880Z,98524.75
2019-04-16T05:25:51.013Z,98528.23
2019-04-16T05:28:18.538Z,98527.42
2019-04-16T05:30:45.638Z,98522.09
2019-04-16T05:33:12.911Z,98521.30
2019-04-16T05:35:41.449Z,98530.90
2019-04-16T05:38:10.003Z,98526.89
2019-04-16T05:40:37.570Z,98539.16
2019-04-16T05:43:05.135Z,98539.97
2019-04-16T05:45:34.446Z,98544.77
2019-04-16T05:48:02.023Z,98549.56
2019-04-16T05:50:30.056Z,98549.03
2019-04-16T05:52:57.325Z,98559.72
2019-04-16T05:55:35.755Z,98551.45
2019-04-16T05:58:03.197Z,98549.30
2019-04-16T06:00:41.373Z,98549.30
2019-04-16T06:03:07.460Z,98545.03
2019-04-16T06:05:34.506Z,98551.73
2019-04-16T06:08:09.074Z,98553.58
2019-04-16T06:10:37.892Z,98557.30
2019-04-16T06:13:23.496Z,98549.58
2019-04-16T06:16:00.424Z,98556.23
2019-04-16T06:18:37.030Z,98557.55
2019-04-16T06:21:28.271Z,98564.75
2019-04-16T06:24:11.953Z,98572.50
2019-04-16T06:26:57.490Z,98571.69
2019-04-16T06:29:34.930Z,98581.84
2019-04-16T06:32:14.854Z,98587.97
2019-04-16T06:35:01.479Z,98588.73
2019-04-16T06:37:45.770Z,98587.14
2019-04-16T06:40:32.831Z,98586.05
2019-04-16T06:43:08.913Z,98577.79
2019-04-16T06:45:41.579Z,98591.93
2019-04-16T06:48:13.228Z,98584.45
2019-04-16T06:51:00.041Z,98582.83
2019-04-16T06:53:39.483Z,98583.10
2019-04-16T06:56:29.161Z,98572.42
2019-04-16T06:59:01.149Z,98577.47
2019-04-16T07:01:53.802Z,98572.12
2019-04-16T07:04:43.666Z,98573.70
2019-04-16T07:07:43.304Z,98569.97
2019-04-16T07:10:12.727Z,98573.14
2019-04-16T07:12:40.676Z,98564.30
2019-04-16T07:15:08.392Z,98566.39
2019-04-16T07:17:35.641Z,98557.29
2019-04-16T07:20:04.842Z,98557.80
2019-04-16T07:22:32.196Z,98553.50
2019-04-16T07:25:03.777Z,98556.95
2019-04-16T07:27:52.734Z,98557.98
2019-04-16T07:30:28.348Z,98552.09
2019-04-16T07:33:20.987Z,98557.42
2019-04-16T07:36:07.712Z,98555.80
2019-04-16T07:38:55.360Z,98554.68
2019-04-16T07:41:31.317Z,98544.52
2019-04-16T07:44:04.441Z,98545.55
2019-04-16T07:46:50.160Z,98550.34
2019-04-16T07:49:45.928Z,98548.70
2019-04-16T07:52:31.437Z,98557.80
2019-04-16T07:55:11.865Z,98564.17
2019-04-16T07:57:40.040Z,98570.59
2019-04-16T08:00:09.719Z,98571.90
2019-04-16T08:02:37.533Z,98571.06
2019-04-16T08:05:08.940Z,98567.83
2019-04-16T08:07:35.560Z,98559.53
2019-04-16T08:10:03.304Z,98555.21
2019-04-16T08:12:31.171Z,98557.33
2019-04-16T08:15:12.914Z,98557.58
2019-04-16T08:17:28.519Z,98552.23
2019-04-16T08:19:56.070Z,98545.79
2019-04-16T08:22:24.132Z,98540.94
2019-04-16T08:24:59.655Z,98541.97
2019-04-16T08:27:25.444Z,98545.67
2019-04-16T08:29:53.442Z,98545.42
2019-04-16T08:32:21.476Z,98543.55
2019-04-16T08:34:49.387Z,98550.98
2019-04-16T08:37:17.121Z,98556.56
2019-04-16T08:39:45.333Z,98547.72
2019-04-16T08:42:13.044Z,98558.92
2019-04-16T08:44:40.827Z,98562.09
2019-04-16T08:47:12.112Z,98558.33
2019-04-16T08:49:37.953Z,98556.46
2019-04-16T08:52:09.860Z,98556.67
2019-04-16T08:54:34.851Z,98552.91
2019-04-16T08:57:02.749Z,98551.28
2019-04-16T08:59:30.433Z,98552.59
2019-04-16T09:01:58.383Z,98554.45
2019-04-16T09:04:26.257Z,98553.61
2019-04-16T09:06:53.859Z,98557.59
2019-04-16T09:09:40.873Z,98553.85
2019-04-16T09:12:09.630Z,98550.61
2019-04-16T09:14:41.931Z,98543.88
2019-04-16T09:17:31.446Z,98547.86
2019-04-16T09:20:07.440Z,98549.20
2019-04-16T09:22:48.137Z,98544.37
2019-04-16T09:25:20.787Z,98546.48
2019-04-16T09:27:52.567Z,98544.57
2019-04-16T09:30:38.225Z,98544.26
2019-04-16T09:33:18.769Z,98531.67
2019-04-16T09:35:54.352Z,98534.03
2019-04-16T09:38:29.737Z,98532.69
2019-04-16T09:41:16.722Z,98541.25
2019-04-16T09:43:47.239Z,98540.71
2019-04-16T09:46:21.083Z,98545.50
2019-04-16T09:48:43.361Z,98540.63
2019-04-16T09:51:10.486Z,98542.25
2019-04-16T09:53:40.445Z,98541.41
2019-04-16T09:56:28.899Z,98540.59
2019-04-16T09:59:00.979Z,98537.34
2019-04-16T10:01:33.635Z,98535.14
2019-04-16T10:04:00.691Z,98535.67
2019-04-16T10:06:28.361Z,98532.70
2019-04-16T10:08:56.815Z,98535.09
2019-04-16T10:11:24.504Z,98540.98
2019-04-16T10:13:51.833Z,98539.31
2019-04-16T10:16:20.766Z,98535.78
2019-04-16T10:18:47.814Z,98536.55
2019-04-16T10:21:18.782Z,98540.00
2019-04-16T10:24:06.551Z,98544.53
2019-04-16T10:26:34.307Z,98538.60
2019-04-16T10:29:05.937Z,98541.77
2019-04-16T10:31:33.367Z,98535.63
2019-04-16T10:34:00.695Z,98539.86
2019-04-16T10:36:27.744Z,98533.16
2019-04-16T10:39:14.750Z,98535.02
2019-04-16T10:42:04.394Z,98525.05
2019-04-16T10:44:56.928Z,98522.08
2019-04-16T10:47:35.845Z,98512.41
2019-04-16T10:50:19.552Z,98511.36
2019-04-16T10:53:05.013Z,98511.31
2019-04-16T10:56:00.224Z,98512.90
2019-04-16T10:58:46.021Z,98506.95
2019-04-16T11:01:32.943Z,98507.00
2019-04-16T11:04:17.711Z,98506.20
2019-04-16T11:06:46.471Z,98504.52
2019-04-16T11:09:13.538Z,98510.92
2019-04-16T11:11:40.533Z,98506.33
2019-04-16T11:14:08.637Z,98502.33
2019-04-16T11:16:37.104Z,98507.94
2019-04-16T11:19:04.486Z,98498.29
2019-04-16T11:21:32.992Z,98498.85
2019-04-16T11:24:00.325Z,98496.66
2019-04-16T11:26:27.694Z,98497.45
2019-04-16T11:28:54.769Z,98491.28
2019-04-16T11:31:22.797Z,98496.11
2019-04-16T11:33:51.508Z,98494.48
2019-04-16T11:36:21.019Z,98489.63
2019-04-16T11:38:48.479Z,98490.12
2019-04-16T11:41:15.697Z,98491.45
2019-04-16T11:43:42.739Z,98446.36
2019-04-16T11:46:10.207Z,98493.61
2019-04-16T11:48:38.333Z,98485.05
2019-04-16T11:51:05.819Z,98489.58
2019-04-16T11:53:33.461Z,98490.92
2019-04-16T11:56:01.251Z,98482.07
2019-04-16T11:58:42.914Z,98489.05
2019-04-16T12:01:22.806Z,98486.61
2019-04-16T12:03:56.161Z,98481.30
2019-04-16T12:06:36.246Z,98484.17
2019-04-16T12:09:23.723Z,98485.51
2019-04-16T12:11:54.360Z,98489.24
2019-04-16T12:14:47.495Z,98491.68
2019-04-16T12:17:26.435Z,98490.83
2019-04-16T12:20:13.150Z,98487.85
2019-04-16T12:22:57.382Z,98482.71
2019-04-16T12:25:31.806Z,98492.05
2019-04-16T12:28:13.191Z,98497.08
2019-04-16T12:31:00.042Z,98490.64
2019-04-16T12:33:33.924Z,98499.16
2019-04-16T12:36:24.545Z,98501.50
2019-04-16T12:39:19.600Z,98504.42
2019-04-16T12:42:02.381Z,98504.42
2019-04-16T12:44:49.852Z,98504.94
2019-04-16T12:47:52.321Z,98514.81
2019-04-16T12:50:39.391Z,98505.94
2019-04-16T12:53:19.085Z,98511.02
2019-04-16T12:56:07.720Z,98510.20
2019-04-16T12:59:05.066Z,98509.38
2019-04-16T13:01:43.236Z,98512.59
2019-04-16T13:04:29.953Z,98518.82
2019-04-16T13:07:11.347Z,98511.06
2019-04-16T13:09:57.530Z,98511.84
2019-04-16T13:12:41.734Z,98503.33
2019-04-16T13:15:27.419Z,98513.98
2019-04-16T13:18:03.493Z,98512.41
2019-04-16T13:20:48.975Z,98524.72
2019-04-16T13:23:35.270Z,98520.06
2019-04-16T13:26:11.887Z,98468.48
2019-04-16T13:28:37.673Z,98525.36
2019-04-16T13:31:05.132Z,98519.94
2019-04-16T13:33:32.164Z,98525.94
2019-04-16T13:35:59.558Z,98527.75
2019-04-16T13:38:28.398Z,98520.17
2019-04-16T13:40:56.046Z,98522.61
2019-04-16T13:43:30.197Z,98522.86
2019-04-16T13:45:58.161Z,98523.84
2019-04-16T13:48:36.357Z,98521.20
2019-04-16T13:51:12.404Z,98522.50
2019-04-16T13:53:42.029Z,98522.25
2019-04-16T13:56:21.698Z,98525.98
2019-04-16T13:59:00.598Z,98521.11
2019-04-16T14:01:30.614Z,98523.03
2019-04-16T14:03:58.175Z,98510.07
2019-04-16T14:06:25.191Z,98511.98
2019-04-16T14:08:52.253Z,98510.05
2019-04-16T14:11:20.501Z,98509.48
2019-04-16T14:13:50.207Z,98513.17
2019-04-16T14:16:16.683Z,98510.89
2019-04-16T14:18:44.414Z,98511.47
2019-04-16T14:21:11.869Z,98511.13
2019-04-16T14:23:39.637Z,98517.67
2019-04-16T14:26:06.655Z,98510.08
2019-04-16T14:28:34.577Z,98513.33
2019-04-16T14:31:02.714Z,98515.45
2019-04-16T14:33:40.849Z,98513.23
2019-04-16T14:36:09.729Z,98516.15
2019-04-16T14:38:42.732Z,98515.48
2019-04-16T14:41:14.448Z,98512.28
2019-04-16T14:43:41.407Z,98514.91
2019-04-16T14:46:09.741Z,98448.09
2019-04-16T14:48:39.322Z,98514.55
2019-04-16T14:51:06.642Z,98515.13
2019-04-16T14:53:56.665Z,98509.76
2019-04-16T14:56:33.416Z,98514.30
2019-04-16T14:59:30.385Z,98514.64
2019-04-16T15:01:59.181Z,98514.64
2019-04-16T15:04:35.938Z,98519.27
2019-04-16T15:07:25.858Z,98512.47
2019-04-16T15:10:10.578Z,98506.61
2019-04-16T15:12:48.655Z,98507.78
2019-04-16T15:15:25.841Z,98520.09
2019-04-16T15:18:01.405Z,98512.14
2019-04-16T15:20:51.149Z,98511.41
2019-04-16T15:23:31.743Z,98515.58
2019-04-16T15:26:07.553Z,98508.38
2019-04-16T15:28:43.255Z,98511.98
2019-04-16T15:31:17.958Z,98506.09
2019-04-16T15:33:57.588Z,98496.35
2019-04-16T15:36:38.492Z,98516.41
2019-04-16T15:39:28.666Z,98515.69
2019-04-16T15:42:17.382Z,98515.43
2019-04-16T15:44:49.569Z,98515.25
2019-04-16T15:47:39.284Z,98517.20
2019-04-16T15:50:15.522Z,98527.16
2019-04-16T15:52:49.642Z,98526.92
2019-04-16T15:55:48.744Z,98531.81
2019-04-16T15:58:25.222Z,98538.02
2019-04-16T16:01:10.999Z,98550.14
2019-04-16T16:03:57.183Z,98551.29
2019-04-16T16:06:26.037Z,98553.48
2019-04-16T16:08:58.468Z,98553.81
2019-04-16T16:11:34.298Z,98562.30
2019-04-16T16:14:02.023Z,98559.91
2019-04-16T16:16:40.881Z,98566.64
2019-04-16T16:18:58.229Z,98566.44
2019-04-16T16:21:26.226Z,98563.23
2019-04-16T16:23:53.364Z,98575.30
2019-04-16T16:26:20.890Z,98574.20
2019-04-16T16:28:49.747Z,98577.66
2019-04-16T16:31:16.820Z,98579.80
2019-04-16T16:33:44.115Z,98580.00
2019-04-16T16:36:11.750Z,98583.21
2019-04-16T16:38:39.498Z,98585.23
2019-04-16T16:41:07.569Z,98583.08
2019-04-16T16:43:35.431Z,98586.33
2019-04-16T16:46:07.659Z,98583.45
2019-04-16T16:48:35.866Z,98587.75
2019-04-16T16:51:02.916Z,98588.00
2019-04-16T16:53:41.346Z,98590.16
2019-04-16T16:56:14.947Z,98588.57
2019-04-16T16:58:47.734Z,98596.86
2019-04-16T17:01:34.627Z,98596.61
2019-04-16T17:04:06.457Z,98579.07
2019-04-16T17:06:33.996Z,98600.68
2019-04-16T17:09:01.386Z,98600.76
2019-04-16T17:11:29.116Z,98587.97
2019-04-16T17:13:58.084Z,98598.89
2019-04-16T17:16:25.545Z,98594.39
2019-04-16T17:18:53.190Z,98595.77
2019-04-16T17:21:20.246Z,98590.65
2019-04-16T17:23:47.643Z,98594.70
2019-04-16T17:26:16.059Z,98596.86
2019-04-16T17:28:44.265Z,98593.97
2019-04-16T17:31:11.297Z,98594.39
2019-04-16T17:33:38.691Z,98597.30
2019-04-16T17:36:06.044Z,98591.94
2019-04-16T17:38:33.898Z,98598.59
2019-04-16T17:41:04.600Z,98605.38
2019-04-16T17:44:00.261Z,98603.75
2019-04-16T17:46:54.592Z,98609.69
2019-04-16T17:49:27.474Z,98604.05
2019-04-16T17:52:01.266Z,98609.20
2019-04-16T17:54:32.337Z,98616.17
2019-04-16T17:57:23.268Z,98617.27
2019-04-16T18:00:09.437Z,98625.52
2019-04-16T18:02:49.465Z,98624.75
2019-04-16T18:05:25.117Z,98622.06
2019-04-16T18:08:27.498Z,98640.30
2019-04-16T18:11:26.662Z,98647.03
2019-04-16T18:14:06.666Z,98650.30
2019-04-16T18:16:39.147Z,98662.09
2019-04-16T18:19:14.086Z,98662.36
2019-04-16T18:21:48.659Z,98661.80
2019-04-16T18:24:27.894Z,98667.41
2019-04-16T18:27:25.587Z,98665.02
2019-04-16T18:30:29.694Z,98676.81
2019-04-16T18:33:29.277Z,98679.47
2019-04-16T18:36:04.436Z,98692.08
2019-04-16T18:38:50.402Z,98695.32
2019-04-16T18:41:22.288Z,98698.53
2019-04-16T18:43:59.393Z,98703.08
2019-04-16T18:46:52.836Z,98705.97
2019-04-16T18:49:22.628Z,98714.57
2019-04-16T18:51:50.087Z,98720.99
2019-04-16T18:54:17.412Z,98723.70
2019-04-16T18:56:44.511Z,98731.73
2019-04-16T18:59:12.323Z,98737.09
2019-04-16T19:01:41.345Z,98738.69
2019-04-16T19:04:08.498Z,98738.13
2019-04-16T19:06:36.523Z,98739.47
2019-04-16T19:09:06.402Z,98748.34
2019-04-16T19:11:34.621Z,98748.59
2019-04-16T19:14:02.216Z,98752.58
2019-04-16T19:16:30.079Z,98746.72
2019-04-16T19:18:57.737Z,98752.36
2019-04-16T19:21:25.143Z,98751.02
2019-04-16T19:23:52.504Z,98753.45
2019-04-16T19:26:19.818Z,98757.72
2019-04-16T19:28:47.038Z,98757.97
2019-04-16T19:31:14.141Z,98761.98
2019-04-16T19:33:41.737Z,98757.16
2019-04-16T19:36:08.921Z,98765.23
2019-04-16T19:38:39.375Z,98774.30
2019-04-16T19:41:06.582Z,98784.73
2019-04-16T19:43:35.340Z,98790.09
2019-04-16T19:46:02.806Z,98785.27
2019-04-16T19:48:35.882Z,98787.91
2019-04-16T19:50:59.222Z,98787.11
2019-04-16T19:53:26.417Z,98787.61
2019-04-16T19:55:55.013Z,98783.87
2019-04-16T19:58:23.026Z,98780.03
2019-04-16T20:00:54.031Z,98779.78
2019-04-16T20:03:20.366Z,98790.25
2019-04-16T20:05:47.393Z,98791.34
2019-04-16T20:08:14.944Z,98789.73
2019-04-16T20:10:43.223Z,98790.81
2019-04-16T20:13:10.667Z,98795.64
2019-04-16T20:15:43.319Z,98792.96
2019-04-16T20:18:07.536Z,98796.70
2019-04-16T20:20:35.312Z,98792.46
2019-04-16T20:23:02.364Z,98804.52
2019-04-16T20:25:31.622Z,98805.61
2019-04-16T20:27:59.032Z,98803.99
2019-04-16T20:30:26.442Z,98805.36
2019-04-16T20:32:53.882Z,98799.47
2019-04-16T20:35:20.936Z,98797.83
2019-04-16T20:37:50.385Z,98796.48
2019-04-16T20:40:18.755Z,98795.70
2019-04-16T20:42:46.609Z,98792.46
2019-04-16T20:45:13.854Z,98797.30
2019-04-16T20:47:41.558Z,98795.14
2019-04-16T20:50:09.389Z,98801.84
2019-04-16T20:52:37.276Z,98801.59
2019-04-16T20:55:06.073Z,98808.01
2019-04-16T20:57:34.012Z,98814.45
2019-04-16T21:00:01.237Z,98811.50
2019-04-16T21:02:30.566Z,98812.31
2019-04-16T21:05:02.655Z,98812.59
2019-04-16T21:07:27.660Z,98812.34
2019-04-16T21:09:56.221Z,98811.02
2019-04-16T21:12:23.394Z,98818.78
2019-04-16T21:14:53.997Z,98817.97
2019-04-16T21:17:20.171Z,98815.82
2019-04-16T21:19:47.910Z,98813.73
2019-04-16T21:22:16.306Z,98811.80
2019-04-16T21:24:44.117Z,98810.75
2019-04-16T21:27:11.985Z,98813.95
2019-04-16T21:29:39.354Z,98813.40
2019-04-16T21:32:10.774Z,98819.03
2019-04-16T21:34:47.286Z,98815.32
2019-04-16T21:37:24.803Z,98825.79
2019-04-16T21:39:57.167Z,98825.79
2019-04-16T21:42:24.889Z,98815.84
2019-04-16T21:44:52.008Z,98822.57
2019-04-16T21:47:23.213Z,98830.60
2019-04-16T21:49:49.708Z,98831.41
2019-04-16T21:52:16.780Z,98831.44
2019-04-16T21:54:44.145Z,98831.97
2019-04-16T21:57:13.603Z,98842.94
2019-04-16T21:59:40.972Z,98842.95
2019-04-16T22:02:22.414Z,98849.13
2019-04-16T22:04:49.608Z,98848.60
2019-04-16T22:07:17.069Z,98846.98
2019-04-16T22:09:44.625Z,98854.46
2019-04-16T22:12:15.238Z,98852.62
2019-04-16T22:14:41.056Z,98854.21
2019-04-16T22:17:08.547Z,98856.31
2019-04-16T22:19:35.708Z,98845.34
2019-04-16T22:22:02.842Z,98845.09
2019-04-16T22:24:30.096Z,98845.34
2019-04-16T22:26:57.128Z,98848.02
2019-04-16T22:29:24.169Z,98856.08
2019-04-16T22:31:56.152Z,98851.00
2019-04-16T22:34:20.226Z,98853.17
2019-04-16T22:36:47.923Z,98861.20
2019-04-16T22:39:37.812Z,98861.98
2019-04-16T22:42:23.425Z,98865.23
2019-04-16T22:45:08.573Z,98863.33
2019-04-16T22:47:36.719Z,98860.38
2019-04-16T22:50:15.148Z,98859.08
2019-04-16T22:52:33.193Z,98859.88
2019-04-16T22:55:00.522Z,98861.77
2019-04-16T22:57:30.946Z,98865.29
2019-04-16T22:59:58.328Z,98863.69
2019-04-16T23:02:28.172Z,98869.59
2019-04-16T23:04:58.552Z,98873.09
2019-04-16T23:07:25.132Z,98874.73
2019-04-16T23:09:53.425Z,98873.69
2019-04-16T23:12:27.158Z,98877.45
2019-04-16T23:14:51.274Z,98871.56
2019-04-16T23:17:20.466Z,98876.39
2019-04-16T23:19:48.131Z,98878.00
2019-04-16T23:22:15.534Z,98874.28
2019-04-16T23:24:42.605Z,98873.74
2019-04-16T23:27:09.702Z,98873.48
2019-04-16T23:29:36.763Z,98874.84
2019-04-16T23:32:03.858Z,98873.22
2019-04-16T23:34:34.921Z,98872.97
2019-04-16T23:37:01.765Z,98868.70
2019-04-16T23:39:28.843Z,98875.92
2019-04-16T23:41:56.801Z,98878.09
2019-04-16T23:44:34.256Z,98884.20
2019-04-16T23:47:21.269Z,98882.33
2019-04-16T23:49:59.044Z,98881.82
2019-04-16T23:52:34.535Z,98884.50
2019-04-16T23:55:04.209Z,98890.91
2019-04-16T23:57:56.831Z,98892.25
